aviador You're here:

KMPO Decoded Metar

MT. POCONO in PA, USA
Report Time2017-08-19 14:53:00
UTC Time2017-08-19 15:01:37
Flight Rules vfr VFR
Wind280° at 10 kt
W.Decomp.*RWY 31: 9.6 kt HW 2.9 kt LCW
RWY 23: 4.5 kt HW 8.9 kt RCW
W.Rank280° ranks 5
Current wind is above 280° avg. (9.0)
Visibility9999 m
Phenomena:N/A
Clouds:Scattered 028 Hf
Expected CloudBase > 2,400 ft AGL from Temp-Dew spread
CeilingNone
Temp22°C (ISA +11)
Dew Point16°C (69% RH)
AAT20.4°C
QNH1014 hPa
Density Alt3,356 ft
Elevation1,893 ft
Report Wrong Elevation
Raw Report
METAR KMPO 191453Z AUTO 28010KT 10SM SCT028 22/16 A2994 RMK AO2 SLP127
T02170161 53009=

Extra information for KMPO:More info

Metar Taf Metar & Taf Last 4 Metars F.Rules Stats Wind Profile Meteogram Temp Stats Airport Information Weather charts Add Link Nearby VenuesMetar ALERT Operation Metar Decoded Social comments

AIRNAV info for KMPO